Time;durP1;ratioP1;P1;durP2;ratioP2;P2;SDS_P1;SDS_P2;PMS_P1;PMS_P2;Temp;Humidity;BMP_temperature;BMP_pressure;BME280_temperature;BME280_humidity;BME280_pressure;Samples;Min_cycle;Max_cycle;Signal;HPM_P1;HPM_P2
2023/11/30 00:01:49;;;;;;;1999.90;999.90;;;;;;;7.19;62.88;100180.81;10297396;28;20051;-72
2023/11/30 00:06:51;;;;;;;1999.90;999.90;;;;;;;6.87;64.36;100177.31;10296341;28;20106;-72
2023/11/30 00:11:53;;;;;;;1999.90;999.90;;;;;;;7.18;63.74;100171.34;10296212;28;20065;-72
2023/11/30 00:16:56;;;;;;;1999.90;999.90;;;;;;;7.07;63.45;100161.47;10296513;28;20125;-72
2023/11/30 00:21:58;;;;;;;1999.90;999.90;;;;;;;7.23;62.02;100151.09;10295548;28;20058;-72
2023/11/30 00:27:01;;;;;;;1999.90;999.90;;;;;;;6.73;64.26;100153.78;10296589;28;20094;-72
2023/11/30 00:32:03;;;;;;;1999.90;999.90;;;;;;;6.91;63.07;100151.97;10296200;28;20085;-72
2023/11/30 00:37:06;;;;;;;1999.90;999.90;;;;;;;7.21;62.45;100146.88;10311063;28;20089;-72
2023/11/30 00:42:08;;;;;;;1999.90;999.90;;;;;;;6.70;64.32;100152.16;10295573;28;20409;-72
2023/11/30 00:47:11;;;;;;;1999.90;999.90;;;;;;;6.62;64.43;100162.13;10295253;28;20409;-72
2023/11/30 00:52:13;;;;;;;1999.90;999.90;;;;;;;6.59;64.10;100157.91;10294102;28;20069;-72
2023/11/30 00:57:15;;;;;;;1999.90;999.90;;;;;;;6.69;62.67;100166.06;10295052;28;20414;-72
2023/11/30 01:02:18;;;;;;;1999.90;999.90;;;;;;;6.66;64.11;100168.84;10294785;28;20454;-72
2023/11/30 01:07:20;;;;;;;1999.90;999.90;;;;;;;6.07;64.75;100145.78;10294642;28;20410;-72
2023/11/30 01:12:23;;;;;;;1999.90;999.90;;;;;;;5.92;67.29;100154.28;10294657;28;20131;-72
2023/11/30 01:17:26;;;;;;;1999.90;999.90;;;;;;;6.70;64.77;100146.97;10293109;28;20505;-71
2023/11/30 01:22:28;;;;;;;1999.90;999.90;;;;;;;6.00;65.42;100148.72;10294500;28;20051;-71
2023/11/30 01:27:30;;;;;;;1999.90;999.90;;;;;;;6.30;64.01;100155.03;10292969;28;20053;-71
2023/11/30 01:32:33;;;;;;;1999.90;999.90;;;;;;;5.99;64.73;100141.88;10292782;28;20116;-71
2023/11/30 01:37:36;;;;;;;1999.90;999.90;;;;;;;6.85;63.68;100143.56;10292668;28;20047;-71
2023/11/30 01:42:38;;;;;;;1999.90;999.90;;;;;;;6.68;64.48;100143.59;10308545;28;20051;-71
2023/11/30 01:47:41;;;;;;;1999.90;999.90;;;;;;;6.76;63.47;100133.63;10292544;28;20043;-71
2023/11/30 01:52:43;;;;;;;1999.90;999.90;;;;;;;5.95;65.98;100135.91;10369705;23;20152;-73
2023/11/30 01:57:46;;;;;;;1999.90;999.90;;;;;;;5.66;64.58;100126.94;10438547;28;20060;-73
2023/11/30 02:02:48;;;;;;;1999.90;999.90;;;;;;;6.28;65.06;100127.41;10438616;28;20482;-73
2023/11/30 02:07:51;;;;;;;1999.90;999.90;;;;;;;5.88;66.34;100126.75;10456131;28;20072;-73
2023/11/30 02:12:53;;;;;;;1999.90;999.90;;;;;;;5.89;65.95;100118.06;10456136;28;20053;-73
2023/11/30 02:17:55;;;;;;;1999.90;999.90;;;;;;;6.03;64.96;100123.44;10438245;28;20132;-73
2023/11/30 02:22:58;;;;;;;1999.90;999.90;;;;;;;6.14;65.11;100121.16;10455986;28;20128;-73
2023/11/30 02:28:00;;;;;;;1999.90;999.90;;;;;;;6.21;64.13;100103.50;10439176;28;20049;-73
2023/11/30 02:33:03;;;;;;;1999.90;999.90;;;;;;;6.00;63.81;100096.75;10463799;28;20060;-73
2023/11/30 02:38:05;;;;;;;1999.90;999.90;;;;;;;6.54;63.63;100091.44;10445668;28;20060;-73
2023/11/30 02:43:07;;;;;;;1999.90;999.90;;;;;;;6.47;63.16;100096.13;10445486;28;20059;-73
2023/11/30 02:48:10;;;;;;;1999.90;999.90;;;;;;;6.46;63.68;100092.69;10462981;28;20048;-73
2023/11/30 02:53:12;;;;;;;1999.90;999.90;;;;;;;6.22;63.28;100096.53;10462498;28;20064;-73
2023/11/30 02:58:15;;;;;;;1999.90;999.90;;;;;;;6.54;63.81;100087.09;10462728;28;20045;-73
2023/11/30 03:03:17;;;;;;;1999.90;999.90;;;;;;;6.42;63.47;100092.91;10444585;28;20410;-73
2023/11/30 03:08:19;;;;;;;1999.90;999.90;;;;;;;6.47;63.60;100091.78;10444492;28;20427;-73
2023/11/30 03:13:22;;;;;;;1999.90;999.90;;;;;;;6.06;63.39;100093.88;10462146;28;20053;-73
2023/11/30 03:18:24;;;;;;;1999.90;999.90;;;;;;;5.99;63.99;100098.53;10443976;28;20041;-73
2023/11/30 03:23:26;;;;;;;1999.90;999.90;;;;;;;6.54;62.74;100094.03;10461810;28;20057;-73
2023/11/30 03:28:29;;;;;;;1999.90;999.90;;;;;;;6.34;63.00;100090.72;10443771;28;20488;-73
2023/11/30 03:33:31;;;;;;;1999.90;999.90;;;;;;;6.61;62.36;100085.84;10461183;28;20491;-73
2023/11/30 03:38:34;;;;;;;1999.90;999.90;;;;;;;6.41;62.13;100088.66;10460829;28;20071;-73
2023/11/30 03:43:36;;;;;;;1999.90;999.90;;;;;;;6.62;63.48;100082.34;10459916;28;20144;-73
2023/11/30 03:48:38;;;;;;;1999.90;999.90;;;;;;;5.87;65.60;100086.94;10460722;28;20045;-73
2023/11/30 03:53:41;;;;;;;1999.90;999.90;;;;;;;6.25;64.87;100085.97;10460399;28;20056;-73
2023/11/30 03:58:43;;;;;;;1999.90;999.90;;;;;;;6.10;65.78;100074.59;10442788;28;20060;-73
2023/11/30 04:03:46;;;;;;;1999.90;999.90;;;;;;;6.74;62.90;100066.97;10460073;28;20048;-73
2023/11/30 04:08:49;;;;;;;1999.90;999.90;;;;;;;6.50;63.78;100068.19;10460161;28;20057;-73
2023/11/30 04:13:51;;;;;;;1999.90;999.90;;;;;;;6.42;64.38;100059.97;10459659;28;20057;-73
2023/11/30 04:18:54;;;;;;;1999.90;999.90;;;;;;;6.39;64.55;100057.53;10441920;28;20041;-73
2023/11/30 04:23:56;;;;;;;1999.90;999.90;;;;;;;6.27;63.82;100056.41;10459360;28;20049;-73
2023/11/30 04:28:59;;;;;;;1999.90;999.90;;;;;;;6.38;63.83;100053.22;10459062;28;20045;-73
2023/11/30 04:34:01;;;;;;;1999.90;999.90;;;;;;;6.25;63.17;100054.78;10458831;28;20559;-73
2023/11/30 04:39:04;;;;;;;1999.90;999.90;;;;;;;6.33;63.90;100047.44;10458710;28;20045;-73
2023/11/30 04:44:07;;;;;;;1999.90;999.90;;;;;;;5.81;64.55;100048.28;10458517;28;20052;-73
2023/11/30 04:49:09;;;;;;;1999.90;999.90;;;;;;;6.32;63.37;100053.53;10424261;28;20049;-73
2023/11/30 04:54:11;;;;;;;1999.90;999.90;;;;;;;5.92;65.21;100058.97;10457609;28;20088;-73
2023/11/30 04:59:14;;;;;;;1999.90;999.90;;;;;;;6.07;65.46;100059.13;10440433;28;20041;-73
2023/11/30 05:04:16;;;;;;;1999.90;999.90;;;;;;;5.99;66.92;100066.50;10440051;28;20055;-73
2023/11/30 05:09:19;;;;;;;1999.90;999.90;;;;;;;6.57;64.37;100062.66;10440309;28;20075;-73
2023/11/30 05:14:21;;;;;;;1999.90;999.90;;;;;;;6.58;64.29;100057.41;10457430;28;20107;-73
2023/11/30 05:19:24;;;;;;;1999.90;999.90;;;;;;;6.54;63.60;100052.44;10457156;28;20051;-73
2023/11/30 05:24:26;;;;;;;1999.90;999.90;;;;;;;6.42;63.10;100049.56;10457361;28;20056;-74
2023/11/30 05:29:28;;;;;;;1999.90;999.90;;;;;;;6.47;62.62;100052.75;10456661;28;20041;-74
2023/11/30 05:34:31;;;;;;;1999.90;999.90;;;;;;;6.22;64.79;100054.94;10456714;28;20053;-74
2023/11/30 05:39:36;;;;;;;1999.90;999.90;;;;;;;6.22;64.92;100045.41;10456666;28;20045;-74
2023/11/30 05:44:38;;;;;;;1999.90;999.90;;;;;;;6.49;63.02;100042.28;10439107;28;20053;-74
2023/11/30 05:49:41;;;;;;;1999.90;999.90;;;;;;;6.12;62.92;100039.81;10456289;28;20045;-74
2023/11/30 05:54:43;;;;;;;1999.90;999.90;;;;;;;6.58;62.31;100038.34;10456569;28;20057;-74
2023/11/30 05:59:45;;;;;;;1999.90;999.90;;;;;;;5.84;62.78;100047.28;10439060;28;20103;-74
2023/11/30 06:04:52;;;;;;;1999.90;999.90;;;;;;;6.27;62.22;100061.59;10426898;28;20494;-74
2023/11/30 06:09:54;;;;;;;1999.90;999.90;;;;;;;6.14;62.51;100050.13;10447423;28;20049;-74
2023/11/30 06:14:57;;;;;;;1999.90;999.90;;;;;;;5.81;62.64;100057.84;10464599;28;20129;-74
2023/11/30 06:19:59;;;;;;;1999.90;999.90;;;;;;;6.03;63.30;100060.22;10446375;28;20064;-74
2023/11/30 06:25:06;;;;;;;1999.90;999.90;;;;;;;6.17;62.25;100067.31;10464025;28;20114;-74
2023/11/30 06:30:08;;;;;;;1999.90;999.90;;;;;;;6.02;63.76;100082.78;10445991;28;20388;-74
2023/11/30 06:35:11;;;;;;;1999.90;999.90;;;;;;;5.48;63.65;100085.38;10463727;28;20053;-74
2023/11/30 06:40:13;;;;;;;1999.90;999.90;;;;;;;6.00;64.01;100089.81;10445538;28;20047;-73
2023/11/30 06:45:16;;;;;;;1999.90;999.90;;;;;;;6.36;64.00;100096.69;10429383;28;20095;-75
2023/11/30 06:50:18;;;;;;;1999.90;999.90;;;;;;;6.65;62.50;100082.16;10463452;28;20052;-75
2023/11/30 06:55:20;;;;;;;1999.90;999.90;;;;;;;6.08;63.98;100079.84;10462487;28;20480;-75
2023/11/30 07:00:23;;;;;;;1999.90;999.90;;;;;;;6.46;64.01;100097.06;10462707;28;20041;-73
2023/11/30 07:05:25;;;;;;;1999.90;999.90;;;;;;;6.71;63.84;100094.03;10462337;28;20080;-75
2023/11/30 07:10:29;;;;;;;1999.90;999.90;;;;;;;6.38;64.65;100097.44;10444614;28;20124;-75
2023/11/30 07:15:31;;;;;;;1999.90;999.90;;;;;;;6.27;65.24;100095.38;10461918;28;20059;-73
2023/11/30 07:20:34;;;;;;;1999.90;999.90;;;;;;;6.70;64.09;100093.16;10444069;28;20079;-74
2023/11/30 07:25:37;;;;;;;1999.90;999.90;;;;;;;6.72;63.54;100081.84;10444063;28;20056;-73
2023/11/30 07:30:43;;;;;;;1999.90;999.90;;;;;;;6.67;64.89;100085.53;10461486;28;20057;-73
2023/11/30 07:35:45;;;;;;;1999.90;999.90;;;;;;;6.92;63.50;100089.41;10461293;28;20063;-74
2023/11/30 07:40:48;;;;;;;1999.90;999.90;;;;;;;7.39;63.45;100087.75;10461292;28;20053;-73
2023/11/30 07:45:50;;;;;;;1999.90;999.90;;;;;;;7.13;62.82;100090.03;10460641;28;20514;-74
2023/11/30 07:50:53;;;;;;;1999.90;999.90;;;;;;;7.16;63.86;100087.28;10460508;28;20049;-73
2023/11/30 07:55:56;;;;;;;1999.90;999.90;;;;;;;6.63;64.56;100088.38;10442786;28;20080;-74
2023/11/30 08:00:59;;;;;;;1999.90;999.90;;;;;;;6.42;67.67;100088.56;10443019;28;20103;-74
2023/11/30 08:06:02;;;;;;;1999.90;999.90;;;;;;;7.82;63.41;100082.75;10460038;28;20461;-74
2023/11/30 08:11:04;;;;;;;1999.90;999.90;;;;;;;7.28;64.67;100090.97;10455621;28;20099;-73
2023/11/30 08:16:07;;;;;;;1999.90;999.90;;;;;;;6.70;67.55;100097.53;10427512;28;20110;-73
2023/11/30 08:21:10;;;;;;;1999.90;999.90;;;;;;;7.13;67.45;100087.44;10459635;28;20574;-74
2023/11/30 08:26:15;;;;;;;1999.90;999.90;;;;;;;5.68;70.94;100088.75;10440623;28;20052;-74
2023/11/30 08:31:17;;;;;;;1999.90;999.90;;;;;;;6.96;67.89;100090.09;10439960;28;20088;-75
2023/11/30 08:36:19;;;;;;;1999.90;999.90;;;;;;;6.84;68.19;100105.47;10435898;28;20136;-74
2023/11/30 08:41:22;;;;;;;1999.90;999.90;;;;;;;8.03;65.20;100098.06;10459240;28;20053;-74
2023/11/30 08:46:24;;;;;;;1999.90;999.90;;;;;;;7.10;66.54;100095.41;10424939;28;20654;-74
2023/11/30 08:51:27;;;;;;;1999.90;999.90;;;;;;;8.15;66.37;100090.38;10458384;28;20057;-74
2023/11/30 08:56:30;;;;;;;1999.90;999.90;;;;;;;7.98;64.46;100095.72;10458058;28;20366;-73
2023/11/30 09:01:33;;;;;;;1999.90;999.90;;;;;;;8.01;65.49;100092.94;10433788;28;20091;-75
2023/11/30 09:06:36;;;;;;;1999.90;999.90;;;;;;;7.68;65.59;100098.31;10439658;28;20081;-74
2023/11/30 09:11:38;;;;;;;1999.90;999.90;;;;;;;7.70;66.16;100091.25;10454792;28;20118;-75
2023/11/30 09:16:41;;;;;;;1999.90;999.90;;;;;;;7.73;65.64;100096.28;10420059;28;20066;-75
2023/11/30 09:21:44;;;;;;;1999.90;999.90;;;;;;;7.47;67.09;100098.59;10455093;28;20049;-75
2023/11/30 09:26:50;;;;;;;1999.90;999.90;;;;;;;7.60;66.32;100098.75;10455742;28;20053;-74
2023/11/30 09:31:53;;;;;;;1999.90;999.90;;;;;;;7.50;66.87;100093.22;10456885;28;20056;-75
2023/11/30 09:36:59;;;;;;;1999.90;999.90;;;;;;;7.89;66.07;100093.66;10456228;28;20053;-75
2023/11/30 09:42:04;;;;;;;1999.90;999.90;;;;;;;8.38;66.10;100096.00;10456353;28;20476;-75
2023/11/30 09:47:06;;;;;;;1999.90;999.90;;;;;;;7.99;65.54;100095.63;10456568;28;20053;-74
2023/11/30 09:52:09;;;;;;;1999.90;999.90;;;;;;;7.87;65.88;100090.28;10456184;28;20446;-73
2023/11/30 09:57:13;;;;;;;1999.90;999.90;;;;;;;7.89;66.35;100080.63;10438575;28;20076;-73
2023/11/30 10:02:15;;;;;;;1999.90;999.90;;;;;;;7.68;66.87;100078.31;10438637;28;20132;-72
2023/11/30 10:07:18;;;;;;;1999.90;999.90;;;;;;;8.06;66.87;100077.88;10455918;28;20052;-73
2023/11/30 10:12:23;;;;;;;1999.90;999.90;;;;;;;8.00;67.04;100073.88;10438489;28;20048;-73
2023/11/30 10:17:27;;;;;;;1999.90;999.90;;;;;;;8.27;65.94;100074.94;10455923;28;20053;-74
2023/11/30 10:22:30;;;;;;;1999.90;999.90;;;;;;;7.80;67.06;100084.59;10438484;28;20045;-74
2023/11/30 10:27:36;;;;;;;1999.90;999.90;;;;;;;8.15;66.69;100079.97;10455633;28;20500;-74
2023/11/30 10:32:39;;;;;;;1999.90;999.90;;;;;;;7.91;68.11;100068.34;10421840;28;20056;-71
2023/11/30 10:37:48;;;;;;;1999.90;999.90;;;;;;;8.08;67.72;100064.75;10455859;28;20049;-74
2023/11/30 10:42:50;;;;;;;1999.90;999.90;;;;;;;7.16;70.14;100066.44;10421429;28;20407;-73
2023/11/30 10:47:54;;;;;;;1999.90;999.90;;;;;;;7.90;70.49;100069.25;10437772;28;20053;-73
2023/11/30 10:52:56;;;;;;;1999.90;999.90;;;;;;;8.59;67.39;100070.44;10444548;28;20053;-73
2023/11/30 10:57:59;;;;;;;1999.90;999.90;;;;;;;8.06;68.21;100070.06;10445180;28;20058;-73
2023/11/30 11:03:07;;;;;;;1999.90;999.90;;;;;;;8.78;66.61;100067.53;10445026;28;20484;-73
2023/11/30 11:08:12;;;;;;;1999.90;999.90;;;;;;;8.23;67.01;100069.06;10428473;28;20111;-73
2023/11/30 11:13:22;;;;;;;1999.90;999.90;;;;;;;7.79;69.24;100067.28;10444664;28;20045;-73
2023/11/30 11:18:30;;;;;;;1999.90;999.90;;;;;;;7.59;70.29;100063.22;10445659;28;20049;-73
2023/11/30 11:23:38;;;;;;;1999.90;999.90;;;;;;;7.92;68.64;100076.06;10444212;28;20407;-73
2023/11/30 11:28:41;;;;;;;1999.90;999.90;;;;;;;8.54;67.49;100065.50;10461597;28;20056;-73
2023/11/30 11:33:43;;;;;;;1999.90;999.90;;;;;;;8.72;66.39;100062.69;10461319;28;20048;-73
2023/11/30 11:38:46;;;;;;;1999.90;999.90;;;;;;;8.39;66.87;100066.38;10461187;28;20080;-73
2023/11/30 11:43:48;;;;;;;1999.90;999.90;;;;;;;8.36;65.11;100062.19;10443445;28;20049;-73
2023/11/30 11:48:51;;;;;;;1999.90;999.90;;;;;;;8.65;67.62;100058.78;10460559;28;20045;-73
2023/11/30 11:53:53;;;;;;;1999.90;999.90;;;;;;;9.21;67.99;100058.78;10443095;28;20049;-74
2023/11/30 11:58:56;;;;;;;1999.90;999.90;;;;;;;9.34;66.19;100051.84;10442869;28;20060;-74
2023/11/30 12:04:00;;;;;;;1999.90;999.90;;;;;;;9.61;66.43;100044.00;10459159;28;20077;-73
2023/11/30 12:09:11;;;;;;;1999.90;999.90;;;;;;;9.91;67.73;100039.47;10460053;28;20095;-73
2023/11/30 12:14:15;;;;;;;1999.90;999.90;;;;;;;10.38;65.26;100027.59;10442373;28;20060;-73
2023/11/30 12:19:19;;;;;;;1999.90;999.90;;;;;;;10.84;64.25;100032.22;10441946;28;20502;-74
2023/11/30 12:24:22;;;;;;;1999.90;999.90;;;;;;;10.07;64.71;100032.28;10459395;28;20053;-73
2023/11/30 12:29:25;;;;;;;1999.90;999.90;;;;;;;10.26;64.12;100036.25;10459295;28;20045;-73
2023/11/30 12:34:27;;;;;;;1999.90;999.90;;;;;;;10.16;65.63;100036.88;10459178;28;20049;-74
2023/11/30 12:39:29;;;;;;;1999.90;999.90;;;;;;;10.02;67.11;100035.19;10441299;28;20056;-74
2023/11/30 12:44:33;;;;;;;1999.90;999.90;;;;;;;10.14;64.89;100044.00;10441026;28;20045;-73
2023/11/30 12:49:35;;;;;;;1999.90;999.90;;;;;;;10.02;65.48;100043.03;10440902;28;20077;-74
2023/11/30 12:54:38;;;;;;;1999.90;999.90;;;;;;;9.97;65.71;100039.91;10457972;28;20053;-74
2023/11/30 12:59:40;;;;;;;1999.90;999.90;;;;;;;9.18;67.08;100041.56;10457986;28;20049;-73
2023/11/30 13:04:43;;;;;;;1999.90;999.90;;;;;;;9.67;66.12;100042.78;10458077;28;20049;-73
2023/11/30 13:09:45;;;;;;;1999.90;999.90;;;;;;;9.84;65.35;100042.47;10457655;28;20048;-73
2023/11/30 13:14:48;;;;;;;1999.90;999.90;;;;;;;9.75;65.21;100042.25;10457205;28;20053;-73
2023/11/30 13:19:50;;;;;;;1999.90;999.90;;;;;;;10.10;64.29;100047.75;10457222;28;20132;-73
2023/11/30 13:24:52;;;;;;;1999.90;999.90;;;;;;;9.59;65.45;100043.25;10457239;28;20424;-73
2023/11/30 13:29:55;;;;;;;1999.90;999.90;;;;;;;9.35;66.66;100035.25;10457133;28;20045;-73
2023/11/30 13:34:57;;;;;;;1999.90;999.90;;;;;;;9.93;64.33;100037.59;10456692;28;20506;-73
2023/11/30 13:40:00;;;;;;;1999.90;999.90;;;;;;;10.08;63.90;100044.41;10456577;28;20071;-74
2023/11/30 13:45:05;;;;;;;1999.90;999.90;;;;;;;10.56;63.49;100046.44;10456664;28;20056;-74
2023/11/30 13:50:08;;;;;;;1999.90;999.90;;;;;;;10.10;63.54;100044.28;10438987;28;20052;-73
2023/11/30 13:55:30;;;;;;;1999.90;999.90;;;;;;;10.20;63.41;100056.66;10456307;28;20136;-74
2023/11/30 14:00:34;;;;;;;1999.90;999.90;;;;;;;9.94;63.81;100047.13;10438529;28;20077;-73
2023/11/30 14:05:36;;;;;;;1999.90;999.90;;;;;;;10.03;63.66;100043.88;10444694;23;20053;31
2023/11/30 14:10:39;;;;;;;1999.90;999.90;;;;;;;9.72;65.55;100050.31;10292089;28;20081;-70
2023/11/30 14:15:41;;;;;;;1999.90;999.90;;;;;;;9.84;65.20;100054.72;10293422;28;20094;-70
2023/11/30 14:20:44;;;;;;;1999.90;999.90;;;;;;;9.55;65.34;100064.47;10292242;28;20047;-70
2023/11/30 14:25:46;;;;;;;1999.90;999.90;;;;;;;9.74;64.74;100056.28;10295840;28;20050;-70
2023/11/30 14:30:49;;;;;;;1999.90;999.90;;;;;;;9.66;65.27;100062.00;10300653;28;20398;-70
2023/11/30 14:35:51;;;;;;;1999.90;999.90;;;;;;;10.10;64.34;100060.00;10300672;28;20050;-70
2023/11/30 14:40:53;;;;;;;1999.90;999.90;;;;;;;10.33;62.30;100058.47;10299512;28;20069;-70
2023/11/30 14:45:56;;;;;;;1999.90;999.90;;;;;;;10.00;63.54;100060.63;10300504;28;20057;-70
2023/11/30 14:50:58;;;;;;;1999.90;999.90;;;;;;;9.93;63.65;100053.28;10300030;28;20046;-70
2023/11/30 14:56:01;;;;;;;1999.90;999.90;;;;;;;9.87;63.98;100067.59;10298828;28;20055;-70
2023/11/30 15:01:08;;;;;;;1999.90;999.90;;;;;;;9.86;64.03;100065.91;10299703;28;20105;-70
2023/11/30 15:06:11;;;;;;;1999.90;999.90;;;;;;;9.93;63.48;100066.34;10298368;28;20143;-70
2023/11/30 15:11:13;;;;;;;1999.90;999.90;;;;;;;9.85;63.45;100064.22;10299198;28;20397;-70
2023/11/30 15:16:15;;;;;;;1999.90;999.90;;;;;;;9.80;64.00;100068.91;10299639;28;20062;-70
2023/11/30 15:21:18;;;;;;;1999.90;999.90;;;;;;;10.09;62.62;100068.78;10297873;28;20488;-70
2023/11/30 15:26:21;;;;;;;1999.90;999.90;;;;;;;9.78;63.33;100065.56;10297501;28;20047;-70
2023/11/30 15:31:25;;;;;;;1999.90;999.90;;;;;;;9.26;63.47;100060.19;10298708;28;20097;-70
2023/11/30 15:36:28;;;;;;;1999.90;999.90;;;;;;;9.32;62.17;100071.19;10298338;28;20109;-70
2023/11/30 15:41:30;;;;;;;1999.90;999.90;;;;;;;8.74;63.65;100071.25;10297004;28;20376;-70
2023/11/30 15:46:34;;;;;;;1999.90;999.90;;;;;;;9.24;63.23;100082.09;10296817;28;20429;-70
2023/11/30 15:51:42;;;;;;;1999.90;999.90;;;;;;;9.32;64.76;100082.47;10297958;28;20051;-70
2023/11/30 15:56:44;;;;;;;1999.90;999.90;;;;;;;9.18;64.40;100077.25;10296552;28;20581;-70
2023/11/30 16:01:47;;;;;;;1999.90;999.90;;;;;;;8.96;63.34;100083.84;10297453;28;20130;-70
2023/11/30 16:06:49;;;;;;;1999.90;999.90;;;;;;;9.29;62.37;100086.09;10297198;28;20543;-70
2023/11/30 16:11:52;;;;;;;1999.90;999.90;;;;;;;8.10;65.79;100086.34;10297055;28;20058;-70
2023/11/30 16:16:54;;;;;;;1999.90;999.90;;;;;;;9.05;62.65;100077.22;10297070;28;20054;-70
2023/11/30 16:21:57;;;;;;;1999.90;999.90;;;;;;;9.22;62.86;100083.97;10296677;28;20058;-70
2023/11/30 16:26:59;;;;;;;1999.90;999.90;;;;;;;9.02;62.34;100086.06;10296616;28;20057;-70
2023/11/30 16:32:02;;;;;;;1999.90;999.90;;;;;;;8.82;63.69;100083.84;10296318;28;20060;-70
2023/11/30 16:37:05;;;;;;;1999.90;999.90;;;;;;;9.44;62.08;100086.88;10294951;28;20063;-70
2023/11/30 16:42:07;;;;;;;1999.90;999.90;;;;;;;9.16;63.19;100086.97;10294688;28;20142;-70
2023/11/30 16:47:09;;;;;;;1999.90;999.90;;;;;;;9.18;63.54;100085.94;10294975;28;20495;-70
2023/11/30 16:52:12;;;;;;;1999.90;999.90;;;;;;;9.18;62.86;100090.31;10295985;28;20078;-70
2023/11/30 16:57:14;;;;;;;1999.90;999.90;;;;;;;9.43;61.97;100092.22;10294452;28;20143;-70
2023/11/30 17:02:17;;;;;;;1999.90;999.90;;;;;;;9.25;62.45;100100.28;10295009;28;20482;-70
2023/11/30 17:07:20;;;;;;;1999.90;999.90;;;;;;;9.04;63.27;100102.47;10309828;28;20051;-70
2023/11/30 17:12:23;;;;;;;1999.90;999.90;;;;;;;8.92;62.79;100098.84;10294785;28;20134;-70
2023/11/30 17:17:25;;;;;;;1999.90;999.90;;;;;;;9.19;63.17;100110.28;10293584;28;20105;-70
2023/11/30 17:22:28;;;;;;;1999.90;999.90;;;;;;;8.74;63.21;100116.47;10294286;28;20525;-70
2023/11/30 17:27:30;;;;;;;1999.90;999.90;;;;;;;8.48;63.38;100117.19;10277048;28;20047;-70
2023/11/30 17:32:32;;;;;;;1999.90;999.90;;;;;;;8.53;64.82;100107.34;10293182;28;20101;-70
2023/11/30 17:37:35;;;;;;;1999.90;999.90;;;;;;;9.07;62.16;100109.28;10293913;28;20514;-70
2023/11/30 17:42:38;;;;;;;1999.90;999.90;;;;;;;8.50;63.09;100113.56;10292818;28;20114;-70
2023/11/30 17:47:40;;;;;;;1999.90;999.90;;;;;;;9.30;61.92;100106.06;10293501;28;20134;-70
2023/11/30 17:52:43;;;;;;;1999.90;999.90;;;;;;;8.84;62.47;100110.69;10292871;28;20109;-70
2023/11/30 17:57:45;;;;;;;1999.90;999.90;;;;;;;7.94;65.71;100113.31;10293239;28;20055;-70
2023/11/30 18:02:48;;;;;;;1999.90;999.90;;;;;;;8.57;63.11;100124.47;10291933;28;20059;-70
2023/11/30 18:07:51;;;;;;;1999.90;999.90;;;;;;;8.60;63.08;100128.69;10293235;28;20090;-70
2023/11/30 18:12:53;;;;;;;1999.90;999.90;;;;;;;8.32;64.44;100131.13;10293322;28;20047;-70
2023/11/30 18:17:56;;;;;;;1999.90;999.90;;;;;;;8.10;65.39;100128.94;10293111;28;20043;-70
2023/11/30 18:22:58;;;;;;;1999.90;999.90;;;;;;;7.94;65.49;100136.78;10291887;28;20109;-70
2023/11/30 18:28:01;;;;;;;1999.90;999.90;;;;;;;8.21;65.06;100143.94;10291960;28;20047;-70
2023/11/30 18:33:03;;;;;;;1999.90;999.90;;;;;;;8.47;63.49;100152.91;10293058;28;20047;-70
2023/11/30 18:38:10;;;;;;;1999.90;999.90;;;;;;;8.62;63.88;100147.69;10292781;28;20081;-70
2023/11/30 18:43:15;;;;;;;1999.90;999.90;;;;;;;8.36;64.34;100148.25;10293302;28;20059;-70
2023/11/30 18:48:18;;;;;;;1999.90;999.90;;;;;;;8.35;64.06;100145.75;10292544;28;20134;-70
2023/11/30 18:53:20;;;;;;;1999.90;999.90;;;;;;;8.51;64.14;100137.91;10292734;28;20061;-70
2023/11/30 18:58:23;;;;;;;1999.90;999.90;;;;;;;8.38;64.19;100142.97;10291309;28;20085;-70
2023/11/30 19:03:25;;;;;;;1999.90;999.90;;;;;;;8.24;63.43;100150.72;10292925;28;20050;-70
2023/11/30 19:08:28;;;;;;;1999.90;999.90;;;;;;;7.67;65.74;100156.59;10292394;28;20055;-70
2023/11/30 19:13:31;;;;;;;1999.90;999.90;;;;;;;7.08;66.86;100172.75;10298198;28;20573;-70
2023/11/30 19:18:34;;;;;;;1999.90;999.90;;;;;;;7.68;65.25;100177.31;10299270;28;20054;-70
2023/11/30 19:23:37;;;;;;;1999.90;999.90;;;;;;;8.30;64.47;100174.69;10298887;28;20391;-70
2023/11/30 19:28:40;;;;;;;1999.90;999.90;;;;;;;7.76;64.57;100184.72;10297664;28;20046;-70
2023/11/30 19:33:42;;;;;;;1999.90;999.90;;;;;;;6.99;67.10;100189.69;10297814;28;20059;-70
2023/11/30 19:38:45;;;;;;;1999.90;999.90;;;;;;;7.74;66.81;100187.41;10298508;28;20450;-70
2023/11/30 19:43:47;;;;;;;1999.90;999.90;;;;;;;7.84;66.59;100176.50;10296948;28;20505;-70
2023/11/30 19:48:49;;;;;;;1999.90;999.90;;;;;;;8.00;64.88;100183.34;10297932;28;20521;-70
2023/11/30 19:53:53;;;;;;;1999.90;999.90;;;;;;;7.38;66.09;100188.50;10297657;28;20387;-70
2023/11/30 19:58:55;;;;;;;1999.90;999.90;;;;;;;7.49;65.06;100189.69;10297668;28;20122;-70
2023/11/30 20:03:58;;;;;;;1999.90;999.90;;;;;;;6.93;68.34;100207.41;10296464;28;20057;-70
2023/11/30 20:09:00;;;;;;;1999.90;999.90;;;;;;;7.68;65.33;100195.56;10295780;28;20051;-70
2023/11/30 20:14:02;;;;;;;1999.90;999.90;;;;;;;7.28;65.96;100202.06;10297000;28;20101;-70
2023/11/30 20:19:05;;;;;;;1999.90;999.90;;;;;;;7.46;64.88;100195.88;10296788;28;20126;-70
2023/11/30 20:24:08;;;;;;;1999.90;999.90;;;;;;;7.89;64.95;100203.97;10294626;28;20097;-70
2023/11/30 20:29:10;;;;;;;1999.90;999.90;;;;;;;7.44;64.65;100208.16;10296368;28;20557;-70
2023/11/30 20:34:13;;;;;;;1999.90;999.90;;;;;;;7.49;65.20;100208.75;10294995;28;20486;-70
2023/11/30 20:39:17;;;;;;;1999.90;999.90;;;;;;;7.00;65.86;100206.16;10295380;28;20051;-70
2023/11/30 20:44:19;;;;;;;1999.90;999.90;;;;;;;6.87;66.83;100217.16;10296047;28;20055;-70
2023/11/30 20:49:21;;;;;;;1999.90;999.90;;;;;;;7.41;64.86;100219.59;10295507;28;20053;-70
2023/11/30 20:54:24;;;;;;;1999.90;999.90;;;;;;;8.05;63.93;100224.78;10294801;28;20050;-70
2023/11/30 20:59:27;;;;;;;1999.90;999.90;;;;;;;7.23;64.71;100226.63;10295138;28;20050;-70
2023/11/30 21:04:29;;;;;;;1999.90;999.90;;;;;;;6.69;66.71;100223.31;10294287;28;20063;-70
2023/11/30 21:09:32;;;;;;;1999.90;999.90;;;;;;;5.95;68.75;100219.94;10295154;28;20130;-70
2023/11/30 21:14:34;;;;;;;1999.90;999.90;;;;;;;6.52;69.05;100221.56;10293513;28;20087;-70
2023/11/30 21:19:36;;;;;;;1999.90;999.90;;;;;;;7.76;64.48;100223.81;10277739;28;20054;-70
2023/11/30 21:24:40;;;;;;;1999.90;999.90;;;;;;;7.45;65.28;100233.28;10293165;28;20061;-70
2023/11/30 21:29:42;;;;;;;1999.90;999.90;;;;;;;8.05;63.05;100232.63;10294049;28;20384;-70
2023/11/30 21:34:45;;;;;;;1999.90;999.90;;;;;;;7.57;64.33;100237.00;10292676;28;20086;-70
2023/11/30 21:39:47;;;;;;;1999.90;999.90;;;;;;;6.76;66.95;100237.72;10293091;28;20127;-70
2023/11/30 21:44:50;;;;;;;1999.90;999.90;;;;;;;6.32;66.65;100233.78;10293951;28;20051;-70
2023/11/30 21:49:52;;;;;;;1999.90;999.90;;;;;;;7.30;63.17;100234.94;10293532;28;20042;-70
2023/11/30 21:54:54;;;;;;;1999.90;999.90;;;;;;;6.40;64.67;100241.19;10293727;28;20130;-70
2023/11/30 21:59:57;;;;;;;1999.90;999.90;;;;;;;7.16;63.14;100250.44;10293322;28;20411;-70
2023/11/30 22:04:59;;;;;;;1999.90;999.90;;;;;;;6.79;63.10;100247.97;10293635;28;20137;-70
2023/11/30 22:10:02;;;;;;;1999.90;999.90;;;;;;;7.44;62.58;100255.88;10292015;28;20086;-70